createdAt,value
2022-10-29T00:03:22.503Z,13042
2022-10-29T00:08:35.088Z,13068
2022-10-29T00:13:46.946Z,13048
2022-10-29T00:18:58.892Z,13053
2022-10-29T00:24:10.801Z,13074
2022-10-29T00:29:22.724Z,13063
2022-10-29T00:34:41.373Z,13016
2022-10-29T00:39:56.052Z,13050
2022-10-29T00:45:07.844Z,13087
2022-10-29T00:50:19.610Z,13056
2022-10-29T00:55:31.399Z,13068
2022-10-29T01:00:43.347Z,13029
2022-10-29T01:05:55.038Z,13048
2022-10-29T01:11:07.039Z,12989
2022-10-29T01:16:19.173Z,13123
2022-10-29T01:21:31.075Z,13113
2022-10-29T01:26:43.039Z,13033
2022-10-29T01:31:55.023Z,13052
2022-10-29T01:37:06.976Z,13046
2022-10-29T01:42:18.972Z,13032
2022-10-29T01:52:54.416Z,12992
2022-10-29T01:58:06.367Z,13014
2022-10-29T02:03:18.327Z,13049
2022-10-29T02:08:30.133Z,12983
2022-10-29T02:13:42.113Z,13124
2022-10-29T02:18:54.113Z,13082
2022-10-29T02:24:05.989Z,13049
2022-10-29T02:29:17.824Z,13046
2022-10-29T02:34:29.292Z,13000
2022-10-29T02:39:41.032Z,13036
2022-10-29T02:44:53.005Z,13041
2022-10-29T02:50:04.840Z,13031
2022-10-29T02:55:16.619Z,13009
2022-10-29T03:00:28.500Z,12991
2022-10-29T03:05:45.170Z,13057
2022-10-29T03:10:58.857Z,13035
2022-10-29T03:16:10.685Z,13003
2022-10-29T03:21:22.605Z,13056
2022-10-29T03:26:34.509Z,13039
2022-10-29T03:31:46.456Z,13063
2022-10-29T03:36:58.395Z,12944
2022-10-29T03:42:10.398Z,13069
2022-10-29T03:47:22.466Z,13072
2022-10-29T03:52:34.167Z,13045
2022-10-29T03:57:46.000Z,13015
2022-10-29T04:02:58.745Z,13029
2022-10-29T04:08:11.643Z,13021
2022-10-29T04:13:23.491Z,13053
2022-10-29T04:18:35.503Z,13020
2022-10-29T04:32:10.127Z,12996
2022-10-29T04:37:21.065Z,13045
2022-10-29T04:42:32.656Z,13072
2022-10-29T04:47:44.418Z,13043
2022-10-29T04:52:56.217Z,13063
2022-10-29T04:58:08.172Z,13033
2022-10-29T05:03:19.930Z,12961
2022-10-29T05:08:31.872Z,13093
2022-10-29T05:13:43.568Z,13078
2022-10-29T05:18:55.529Z,13067
2022-10-29T05:24:07.565Z,13057
2022-10-29T05:29:19.414Z,13088
2022-10-29T05:34:31.204Z,13097
2022-10-29T05:39:43.011Z,13027
2022-10-29T05:44:54.908Z,13052
2022-10-29T05:50:06.793Z,13067
2022-10-29T05:55:18.662Z,13088
2022-10-29T06:00:30.571Z,13077
2022-10-29T06:05:42.541Z,13082
2022-10-29T06:10:54.555Z,13053
2022-10-29T06:16:06.411Z,13076
2022-10-29T06:21:18.186Z,13067
2022-10-29T06:26:30.072Z,13054
2022-10-29T06:31:41.882Z,13048
2022-10-29T06:36:53.675Z,13080
2022-10-29T06:42:05.689Z,13077
2022-10-29T06:47:17.511Z,13122
2022-10-29T06:52:29.584Z,13130
2022-10-29T06:57:41.532Z,13118
2022-10-29T07:02:54.152Z,13136
2022-10-29T07:08:06.798Z,13150
2022-10-29T07:13:18.849Z,13099
2022-10-29T07:18:30.829Z,13154
2022-10-29T07:23:42.792Z,13124
2022-10-29T07:28:55.006Z,13118
2022-10-29T07:34:06.977Z,13155
2022-10-29T07:39:19.008Z,13185
2022-10-29T07:44:31.160Z,13168
2022-10-29T07:49:43.195Z,13200
2022-10-29T07:54:55.374Z,13188
2022-10-29T08:00:07.587Z,13093
2022-10-29T08:05:19.719Z,13231
2022-10-29T08:10:31.804Z,13176
2022-10-29T08:15:43.925Z,13205
2022-10-29T08:20:55.832Z,13216
2022-10-29T08:26:07.977Z,13196
2022-10-29T08:31:20.033Z,13179
2022-10-29T08:36:31.923Z,13182
2022-10-29T08:41:44.008Z,13192
2022-10-29T08:46:56.101Z,13202
2022-10-29T08:52:08.276Z,13211
2022-10-29T08:57:20.224Z,13265
2022-10-29T09:02:40.271Z,13248
2022-10-29T09:08:02.398Z,13222
2022-10-29T09:13:17.286Z,13222
2022-10-29T09:18:29.511Z,13197
2022-10-29T09:23:41.431Z,13172
2022-10-29T09:28:53.567Z,13191
2022-10-29T09:34:06.209Z,13192
2022-10-29T09:39:23.365Z,13234
2022-10-29T09:44:40.340Z,13173
2022-10-29T09:49:52.474Z,13210
2022-10-29T09:55:04.576Z,13219
2022-10-29T10:00:16.602Z,13205
2022-10-29T10:05:29.139Z,13109
2022-10-29T10:10:41.109Z,13245
2022-10-29T10:15:53.415Z,13256
2022-10-29T10:21:05.654Z,13241
2022-10-29T10:26:17.703Z,13206
2022-10-29T10:31:29.955Z,13213
2022-10-29T10:36:42.335Z,13238
2022-10-29T10:41:54.448Z,13241
2022-10-29T10:47:06.619Z,13218
2022-10-29T10:52:18.880Z,13247
2022-10-29T10:57:31.597Z,13245
2022-10-29T11:02:43.733Z,13290
2022-10-29T11:07:58.358Z,14758
2022-10-29T11:13:15.420Z,15072
2022-10-29T11:18:30.860Z,13947
2022-10-29T11:23:45.099Z,13664
2022-10-29T11:28:58.777Z,13634
2022-10-29T11:34:12.318Z,13424
2022-10-29T11:39:25.618Z,13349
2022-10-29T11:44:38.749Z,13228
2022-10-29T11:55:03.554Z,12910
2022-10-29T12:00:16.775Z,13311
2022-10-29T12:05:29.669Z,13023
2022-10-29T12:15:53.083Z,13232
2022-10-29T12:21:05.893Z,13182
2022-10-29T12:26:18.742Z,12931
2022-10-29T12:36:42.607Z,13169
2022-10-29T12:41:55.163Z,13095
2022-10-29T12:52:19.282Z,13009
2022-10-29T12:57:31.785Z,12885
2022-10-29T13:02:44.747Z,13184
2022-10-29T13:07:58.591Z,13012
2022-10-29T13:13:11.946Z,12900
2022-10-29T13:18:24.208Z,13022
2022-10-29T13:28:47.144Z,12903
2022-10-29T13:44:20.804Z,12926
2022-10-29T14:30:53.911Z,13020
2022-10-29T14:36:06.031Z,12930
2022-10-29T14:56:48.436Z,12937
2022-10-29T15:02:37.365Z,12908
2022-10-29T15:07:46.934Z,12946
2022-10-29T15:13:00.708Z,12921
2022-10-29T15:18:12.746Z,12979
2022-10-29T15:23:24.852Z,12884
2022-10-29T15:33:47.292Z,12935
2022-10-29T15:38:59.417Z,12962
2022-10-29T15:49:21.469Z,12901
2022-10-29T16:04:53.997Z,12907
2022-10-29T16:15:16.626Z,12995
2022-10-29T16:20:29.240Z,12928
2022-10-29T16:25:41.267Z,12903
2022-10-29T16:30:53.419Z,12904
2022-10-29T16:36:05.293Z,12909
2022-10-29T16:41:17.562Z,12944
2022-10-29T16:46:29.210Z,12947
2022-10-29T16:51:41.257Z,13077
2022-10-29T16:56:53.567Z,13072
2022-10-29T17:02:05.969Z,13113
2022-10-29T17:07:18.041Z,13151
2022-10-29T17:12:30.239Z,13061
2022-10-29T17:17:46.631Z,13012
2022-10-29T17:22:59.356Z,12988
2022-10-29T17:28:11.219Z,12946
2022-10-29T17:33:23.192Z,12940
2022-10-29T17:38:35.312Z,12935
2022-10-29T17:43:47.211Z,12964
2022-10-29T17:54:08.849Z,13016
2022-10-29T17:59:21.045Z,12998
2022-10-29T18:04:32.851Z,13029
2022-10-29T18:09:44.754Z,12982
2022-10-29T18:14:56.623Z,12997
2022-10-29T18:20:08.423Z,12973
2022-10-29T18:25:20.591Z,13007
2022-10-29T18:30:32.807Z,13023
2022-10-29T18:35:44.953Z,12951
2022-10-29T18:40:56.700Z,12958
2022-10-29T18:46:08.703Z,12977
2022-10-29T18:51:20.589Z,12975
2022-10-29T18:56:32.687Z,13030
2022-10-29T19:01:45.124Z,13019
2022-10-29T19:06:57.008Z,13007
2022-10-29T19:12:08.924Z,13026
2022-10-29T19:17:24.985Z,13039
2022-10-29T19:22:39.181Z,13031
2022-10-29T19:27:51.482Z,13047
2022-10-29T19:33:08.662Z,13032
2022-10-29T19:38:24.761Z,13023
2022-10-29T19:43:36.804Z,13005
2022-10-29T19:48:48.745Z,13045
2022-10-29T19:54:00.354Z,12997
2022-10-29T19:59:12.206Z,12938
2022-10-29T20:04:23.998Z,13053
2022-10-29T20:09:35.781Z,12926
2022-10-29T20:14:57.519Z,13135
2022-10-29T20:20:17.948Z,13045
2022-10-29T20:25:52.976Z,13037
2022-10-29T20:31:01.141Z,13070
2022-10-29T20:36:12.974Z,12948
2022-10-29T20:41:24.913Z,13129
2022-10-29T20:46:43.858Z,13074
2022-10-29T20:51:58.707Z,13063
2022-10-29T20:57:10.732Z,13046
2022-10-29T21:02:22.921Z,12941
2022-10-29T21:07:39.942Z,13077
2022-10-29T21:12:51.834Z,13070
2022-10-29T21:18:03.779Z,13056
2022-10-29T21:23:22.964Z,13047
2022-10-29T21:28:36.005Z,12989
2022-10-29T21:33:48.118Z,13172
2022-10-29T21:38:59.658Z,13081
2022-10-29T21:44:11.536Z,13059
2022-10-29T21:49:23.550Z,13080
2022-10-29T21:54:35.437Z,13042
2022-10-29T21:59:47.116Z,13066
2022-10-29T22:04:58.973Z,13072
2022-10-29T22:10:10.843Z,13062
2022-10-29T22:15:22.739Z,13102
2022-10-29T22:20:34.702Z,13068
2022-10-29T22:25:46.526Z,12931
2022-10-29T22:30:58.433Z,13073
2022-10-29T22:36:10.256Z,13091
2022-10-29T22:41:22.192Z,13088
2022-10-29T22:46:34.001Z,13049
2022-10-29T22:51:45.570Z,13076
2022-10-29T22:56:57.441Z,13035
2022-10-29T23:02:09.601Z,13043
2022-10-29T23:07:21.850Z,13043
2022-10-29T23:12:33.821Z,13040
2022-10-29T23:17:45.427Z,13050
2022-10-29T23:22:57.828Z,12977
2022-10-29T23:28:10.628Z,13129
2022-10-29T23:33:22.319Z,13104
2022-10-29T23:38:34.256Z,13055
2022-10-29T23:43:46.179Z,13049
2022-10-29T23:48:58.028Z,13100
2022-10-29T23:54:09.763Z,13098
2022-10-29T23:59:21.691Z,13004
